Time;durP1;ratioP1;P1;durP2;ratioP2;P2;SDS_P1;SDS_P2;PMS_P1;PMS_P2;Temp;Humidity;BMP_temperature;BMP_pressure;BME280_temperature;BME280_humidity;BME280_pressure;Samples;Min_cycle;Max_cycle;Signal;HPM_P1;HPM_P2
2023/03/07 00:00:42;;;;;;;;;;;;;;;4.55;68.35;98652.69;4926089;29;3402;-82
2023/03/07 00:03:08;;;;;;;;;;;;;;;4.55;68.22;98652.69;4931849;29;4125;-82
2023/03/07 00:05:35;;;;;;;;;;;;;;;4.54;68.25;98649.22;4928527;29;4246;-82
2023/03/07 00:08:02;;;;;;;;;;;;;;;4.53;68.28;98652.94;4935957;29;3874;-83
2023/03/07 00:10:29;;;;;;;;;;;;;;;4.53;68.22;98652.13;4938503;29;3984;-82
2023/03/07 00:12:55;;;;;;;;;;;;;;;4.52;68.42;98653.13;4934373;29;2764;-82
2023/03/07 00:15:22;;;;;;;;;;;;;;;4.49;68.24;98649.06;4932178;29;4468;-83
2023/03/07 00:17:48;;;;;;;;;;;;;;;4.50;68.18;98644.53;4932253;29;3708;-83
2023/03/07 00:20:15;;;;;;;;;;;;;;;4.51;68.18;98638.19;4932622;29;3780;-82
2023/03/07 00:22:41;;;;;;;;;;;;;;;4.50;67.98;98641.88;4931686;29;4064;-82
2023/03/07 00:25:08;;;;;;;;;;;;;;;4.49;68.00;98641.06;4930852;29;3737;-82
2023/03/07 00:27:34;;;;;;;;;;;;;;;4.50;68.04;98640.06;4931655;29;3617;-82
2023/03/07 00:30:01;;;;;;;;;;;;;;;4.49;68.05;98630.41;4935753;29;3852;-82
2023/03/07 00:32:28;;;;;;;;;;;;;;;4.49;67.94;98627.75;4935415;29;3725;-83
2023/03/07 00:34:54;;;;;;;;;;;;;;;4.48;67.94;98628.78;4933687;29;4020;-82
2023/03/07 00:37:24;;;;;;;;;;;;;;;4.48;67.78;98625.31;4934453;29;3799;-82
2023/03/07 00:39:50;;;;;;;;;;;;;;;4.46;67.93;98627.38;4937192;29;3759;-82
2023/03/07 00:42:17;;;;;;;;;;;;;;;4.45;67.84;98623.91;4933150;29;3482;-82
2023/03/07 00:44:43;;;;;;;;;;;;;;;4.46;67.80;98627.38;4931170;29;3542;-82
2023/03/07 00:47:10;;;;;;;;;;;;;;;4.41;67.67;98622.75;4935933;29;3627;-82
2023/03/07 00:49:36;;;;;;;;;;;;;;;4.43;67.70;98625.97;4931953;29;3411;-82
2023/03/07 00:52:03;;;;;;;;;;;;;;;4.43;67.83;98606.53;4932202;29;3788;-82
2023/03/07 00:54:29;;;;;;;;;;;;;;;4.43;68.03;98610.00;4930605;29;3402;-82
2023/03/07 00:56:56;;;;;;;;;;;;;;;4.43;67.83;98606.53;4934792;29;3964;-82
2023/03/07 00:59:22;;;;;;;;;;;;;;;4.42;67.55;98605.72;4930570;29;3798;-82
2023/03/07 01:01:49;;;;;;;;;;;;;;;4.44;67.65;98608.13;4933021;29;3790;-82
2023/03/07 01:04:16;;;;;;;;;;;;;;;4.41;67.67;98593.44;4936728;29;3590;-82
2023/03/07 01:06:42;;;;;;;;;;;;;;;4.39;67.41;98592.84;4932611;29;3909;-82
2023/03/07 01:09:09;;;;;;;;;;;;;;;4.38;67.42;98593.06;4932177;29;4115;-82
2023/03/07 01:11:35;;;;;;;;;;;;;;;4.38;67.67;98585.84;4932430;29;3726;-82
2023/03/07 01:14:03;;;;;;;;;;;;;;;4.37;67.83;98578.91;4931116;29;3683;-82
2023/03/07 01:16:29;;;;;;;;;;;;;;;4.35;67.75;98578.31;4924798;29;2744;-82
2023/03/07 01:18:56;;;;;;;;;;;;;;;4.37;67.42;98578.09;4929055;29;2819;-82
2023/03/07 01:21:23;;;;;;;;;;;;;;;4.37;67.39;98562.94;4933916;29;3804;-81
2023/03/07 01:23:49;;;;;;;;;;;;;;;4.34;67.43;98568.72;4923855;29;3470;-82
2023/03/07 01:26:16;;;;;;;;;;;;;;;4.36;67.42;98552.50;4931859;29;3671;-82
2023/03/07 01:28:43;;;;;;;;;;;;;;;4.39;67.30;98555.53;4932062;29;3678;-82
2023/03/07 01:31:09;;;;;;;;;;;;;;;4.36;67.42;98553.31;4929504;29;4024;-82
2023/03/07 01:33:36;;;;;;;;;;;;;;;4.35;67.46;98549.00;4943387;29;3777;-82
2023/03/07 01:36:02;;;;;;;;;;;;;;;4.36;67.19;98545.31;4930339;29;4442;-81
2023/03/07 01:38:32;;;;;;;;;;;;;;;4.37;67.32;98546.13;4929834;29;3646;-82
2023/03/07 01:40:59;;;;;;;;;;;;;;;4.40;66.94;98545.66;4925684;29;3585;-82
2023/03/07 01:43:27;;;;;;;;;;;;;;;4.33;67.46;98537.78;4944025;29;4130;-80
2023/03/07 01:45:53;;;;;;;;;;;;;;;4.30;67.38;98544.38;4927923;29;3476;-82
2023/03/07 01:48:20;;;;;;;;;;;;;;;4.33;67.26;98537.78;4922078;29;4366;-82
2023/03/07 01:50:46;;;;;;;;;;;;;;;4.33;67.25;98541.25;4919383;29;4707;-83
2023/03/07 01:53:14;;;;;;;;;;;;;;;4.32;67.10;98534.31;4933932;29;3581;-82
2023/03/07 01:55:41;;;;;;;;;;;;;;;4.35;67.04;98537.53;4930185;29;3853;-81
2023/03/07 01:58:07;;;;;;;;;;;;;;;4.33;67.11;98537.78;4934457;29;3631;-81
2023/03/07 02:00:37;;;;;;;;;;;;;;;4.29;66.97;98532.09;4927104;29;3700;-83
2023/03/07 02:03:03;;;;;;;;;;;;;;;4.29;67.34;98532.09;4931462;29;3477;-82
2023/03/07 02:05:30;;;;;;;;;;;;;;;4.27;67.10;98530.69;4931445;29;3798;-82
2023/03/07 02:07:56;;;;;;;;;;;;;;;4.28;67.30;98534.97;4927483;29;4640;-82
2023/03/07 02:10:23;;;;;;;;;;;;;;;4.29;66.88;98531.25;4928637;29;3469;-82
2023/03/07 02:12:49;;;;;;;;;;;;;;;4.27;66.93;98525.38;4930256;29;3739;-82
2023/03/07 02:15:16;;;;;;;;;;;;;;;4.29;66.84;98523.25;4933900;29;1638;-82
2023/03/07 02:17:43;;;;;;;;;;;;;;;4.29;67.10;98517.94;4931480;29;3846;-82
2023/03/07 02:20:09;;;;;;;;;;;;;;;4.25;66.94;98517.59;4921887;29;3569;-82
2023/03/07 02:22:36;;;;;;;;;;;;;;;4.26;66.94;98518.41;4930016;29;4030;-82
2023/03/07 02:25:02;;;;;;;;;;;;;;;4.24;66.75;98513.31;4928610;29;3512;-83
2023/03/07 02:27:29;;;;;;;;;;;;;;;4.24;66.95;98509.84;4925686;29;3885;-82
2023/03/07 02:29:55;;;;;;;;;;;;;;;4.25;67.11;98506.13;4932661;29;3104;-82
2023/03/07 02:32:22;;;;;;;;;;;;;;;4.24;66.83;98499.97;4924234;29;3748;-82
2023/03/07 02:34:49;;;;;;;;;;;;;;;4.23;66.78;98500.19;4926116;29;3299;-82
2023/03/07 02:37:15;;;;;;;;;;;;;;;4.21;66.93;98497.78;4935168;29;4036;-82
2023/03/07 02:39:42;;;;;;;;;;;;;;;4.22;66.97;98487.94;4929665;29;3697;-82
2023/03/07 02:42:08;;;;;;;;;;;;;;;4.20;66.98;98485.47;4931785;29;3601;-81
2023/03/07 02:44:35;;;;;;;;;;;;;;;4.21;66.92;98484.44;4929365;29;3746;-80
2023/03/07 02:47:01;;;;;;;;;;;;;;;4.19;66.92;98483.84;4931422;29;3593;-81
2023/03/07 02:49:28;;;;;;;;;;;;;;;4.25;66.87;98480.28;4931221;29;3960;-82
2023/03/07 02:51:59;;;;;;;;;;;;;;;4.21;66.82;98479.13;4925851;29;3749;-81
2023/03/07 02:54:25;;;;;;;;;;;;;;;4.24;66.80;98477.84;4916226;29;3648;-81
2023/03/07 02:56:52;;;;;;;;;;;;;;;4.22;66.69;98488.72;4916259;29;2548;-81
2023/03/07 02:59:18;;;;;;;;;;;;;;;4.21;66.66;98473.00;4916962;29;2539;-81
2023/03/07 03:01:45;;;;;;;;;;;;;;;4.21;66.36;98465.81;4915728;29;3622;-82
2023/03/07 03:04:12;;;;;;;;;;;;;;;4.20;66.91;98468.69;4927534;29;3742;-81
2023/03/07 03:06:38;;;;;;;;;;;;;;;4.19;66.53;98465.22;4926359;29;3598;-82
2023/03/07 03:09:05;;;;;;;;;;;;;;;4.19;66.87;98464.41;4918555;29;2692;-81
2023/03/07 03:11:31;;;;;;;;;;;;;;;4.20;66.54;98466.00;4920541;29;2669;-81
2023/03/07 03:13:58;;;;;;;;;;;;;;;4.19;66.75;98461.75;4926571;29;3734;-81
2023/03/07 03:16:25;;;;;;;;;;;;;;;4.19;66.39;98456.41;4927630;29;3567;-81
2023/03/07 03:18:51;;;;;;;;;;;;;;;4.23;66.39;98460.22;4937813;29;3614;-83
2023/03/07 03:21:18;;;;;;;;;;;;;;;4.20;66.30;98458.03;4925487;29;4147;-81
2023/03/07 03:23:44;;;;;;;;;;;;;;;4.18;66.71;98450.28;4923099;29;4018;-80
2023/03/07 03:26:11;;;;;;;;;;;;;;;4.20;66.29;98450.84;4929101;29;3254;-82
2023/03/07 03:28:37;;;;;;;;;;;;;;;4.21;66.36;98451.66;4920416;29;3098;-80
2023/03/07 03:31:04;;;;;;;;;;;;;;;4.16;66.55;98444.34;4919830;29;3542;-82
2023/03/07 03:33:31;;;;;;;;;;;;;;;4.15;66.62;98434.75;4916623;29;2871;-81
2023/03/07 03:35:57;;;;;;;;;;;;;;;4.19;66.36;98445.75;4913187;29;3687;-81
2023/03/07 03:38:24;;;;;;;;;;;;;;;4.16;66.35;98439.03;4913696;29;3401;-80
2023/03/07 03:40:50;;;;;;;;;;;;;;;4.17;66.31;98434.50;4915301;29;2555;-81
2023/03/07 03:43:17;;;;;;;;;;;;;;;4.14;66.54;98432.28;4916377;29;2466;-81
2023/03/07 03:45:43;;;;;;;;;;;;;;;4.16;66.50;98433.69;4930625;29;3184;-81
2023/03/07 03:48:10;;;;;;;;;;;;;;;4.14;66.38;98432.28;4912169;29;3472;-82
2023/03/07 03:50:36;;;;;;;;;;;;;;;4.17;66.54;98437.16;4913823;29;2567;-81
2023/03/07 03:53:03;;;;;;;;;;;;;;;4.17;66.29;98431.84;4911305;29;4129;-80
2023/03/07 03:55:30;;;;;;;;;;;;;;;4.14;66.47;98434.97;4915594;29;2659;-82
2023/03/07 03:57:56;;;;;;;;;;;;;;;4.12;66.19;98426.38;4915836;29;3826;-81
2023/03/07 04:00:23;;;;;;;;;;;;;;;4.17;66.22;98426.50;4913981;29;3589;-81
2023/03/07 04:02:49;;;;;;;;;;;;;;;4.11;66.57;98425.56;4911828;29;3534;-82
2023/03/07 04:05:17;;;;;;;;;;;;;;;4.10;66.22;98423.97;4913441;29;2612;-82
2023/03/07 04:07:43;;;;;;;;;;;;;;;4.12;66.38;98427.22;4912312;29;2627;-82
2023/03/07 04:10:10;;;;;;;;;;;;;;;4.13;66.02;98425.34;4907893;29;3527;-82
2023/03/07 04:12:37;;;;;;;;;;;;;;;4.12;66.26;98413.06;4916638;29;3642;-83
2023/03/07 04:15:24;;;;;;;;;;;;;;;4.13;66.20;98410.19;4915020;29;3494;-82
2023/03/07 04:18:10;;;;;;;;;;;;;;;4.14;66.29;98403.78;4915131;29;2678;-81
2023/03/07 04:20:57;;;;;;;;;;;;;;;4.13;66.23;98404.84;4914280;29;2436;-83
2023/03/07 04:23:44;;;;;;;;;;;;;;;4.12;66.29;98405.06;4919478;29;2703;-81
2023/03/07 04:26:30;;;;;;;;;;;;;;;4.09;66.17;98396.50;4932968;29;3666;-81
2023/03/07 04:29:21;;;;;;;;;;;;;;;4.15;66.18;98391.28;4919020;29;3326;-83
2023/03/07 04:32:13;;;;;;;;;;;;;;;4.14;65.89;98392.34;4916693;29;3252;-81
2023/03/07 04:35:06;;;;;;;;;;;;;;;4.17;65.99;98392.69;4914672;29;3547;-80
2023/03/07 04:37:57;;;;;;;;;;;;;;;4.15;65.87;98381.47;4915552;29;2610;-81
2023/03/07 04:40:49;;;;;;;;;;;;;;;4.12;66.01;98379.25;4913085;29;3585;-81
2023/03/07 04:43:42;;;;;;;;;;;;;;;4.17;65.85;98374.03;4916186;29;2863;-81
2023/03/07 04:46:33;;;;;;;;;;;;;;;4.15;65.86;98369.97;4913322;29;2559;-80
2023/03/07 04:49:25;;;;;;;;;;;;;;;4.18;65.91;98366.88;4918375;29;3494;-82
2023/03/07 04:52:19;;;;;;;;;;;;;;;4.18;65.94;98370.34;4916209;29;2534;-81
2023/03/07 04:55:10;;;;;;;;;;;;;;;4.15;65.83;98362.81;4922993;29;2413;-81
2023/03/07 04:58:02;;;;;;;;;;;;;;;4.09;66.07;98356.56;4919322;29;3600;-81
2023/03/07 05:00:55;;;;;;;;;;;;;;;4.13;65.69;98354.22;4919412;29;4221;-82
2023/03/07 05:03:47;;;;;;;;;;;;;;;4.15;65.62;98346.81;4917915;29;3138;-82
2023/03/07 05:06:39;;;;;;;;;;;;;;;4.13;65.68;98348.91;4920110;29;3648;-81
2023/03/07 05:09:31;;;;;;;;;;;;;;;4.15;65.79;98344.16;4918200;29;3945;-82
2023/03/07 05:12:23;;;;;;;;;;;;;;;4.13;65.56;98340.91;4918734;29;3390;-82
2023/03/07 05:15:16;;;;;;;;;;;;;;;4.13;65.68;98340.09;4918916;29;2741;-81
2023/03/07 05:18:07;;;;;;;;;;;;;;;4.18;65.69;98334.91;4916227;29;3126;-83
2023/03/07 05:20:59;;;;;;;;;;;;;;;4.11;65.49;98340.31;4918768;29;3076;-81
2023/03/07 05:23:52;;;;;;;;;;;;;;;4.09;66.00;98331.78;4918433;29;2665;-81
2023/03/07 05:26:43;;;;;;;;;;;;;;;4.12;65.42;98317.16;4904479;29;2614;-82
2023/03/07 05:29:35;;;;;;;;;;;;;;;4.11;65.32;98324.34;4931472;29;3817;-81
2023/03/07 05:32:27;;;;;;;;;;;;;;;4.14;65.77;98315.88;4920214;29;3603;-81
2023/03/07 05:35:23;;;;;;;;;;;;;;;4.10;65.60;98302.22;4916541;29;3560;-83
2023/03/07 05:38:14;;;;;;;;;;;;;;;4.09;65.65;98308.59;4920135;29;3467;-82
2023/03/07 05:41:07;;;;;;;;;;;;;;;4.10;65.85;98309.41;4918463;29;4624;-83
2023/03/07 05:43:58;;;;;;;;;;;;;;;4.10;65.59;98312.06;4919016;29;3555;-83
2023/03/07 05:46:50;;;;;;;;;;;;;;;4.12;65.35;98314.47;4922284;29;3701;-83
2023/03/07 05:49:43;;;;;;;;;;;;;;;4.14;65.48;98309.75;4917158;29;2608;-81
2023/03/07 05:52:35;;;;;;;;;;;;;;;4.13;65.36;98308.13;4929904;29;2537;-80
2023/03/07 05:55:26;;;;;;;;;;;;;;;4.06;65.25;98301.06;4924268;29;2440;-81
2023/03/07 05:58:18;;;;;;;;;;;;;;;4.16;65.44;98305.81;4934721;29;3743;-81
2023/03/07 06:01:10;;;;;;;;;;;;;;;4.14;65.49;98310.53;4933279;29;3727;-81
2023/03/07 06:04:01;;;;;;;;;;;;;;;4.18;65.03;98302.91;4935111;29;3756;-80
2023/03/07 06:06:53;;;;;;;;;;;;;;;4.23;65.16;98295.81;4932554;29;3716;-83
2023/03/07 06:09:44;;;;;;;;;;;;;;;4.13;65.57;98290.28;4933206;29;3830;-81
2023/03/07 06:12:36;;;;;;;;;;;;;;;4.13;65.39;98292.94;4933365;29;3801;-80
2023/03/07 06:15:29;;;;;;;;;;;;;;;4.12;65.30;98287.84;4927905;29;5596;-83
2023/03/07 06:18:20;;;;;;;;;;;;;;;4.13;65.11;98292.16;4934197;29;3755;-83
2023/03/07 06:21:12;;;;;;;;;;;;;;;4.13;65.39;98292.16;4931683;29;3654;-82
2023/03/07 06:23:39;;;;;;;;;;;;;;;4.15;65.07;98285.53;4930909;29;3936;-81
2023/03/07 06:26:06;;;;;;;;;;;;;;;4.11;65.20;98284.38;4931042;29;3738;-82
2023/03/07 06:28:58;;;;;;;;;;;;;;;4.17;64.85;98290.63;4931647;29;3671;-82
2023/03/07 06:31:49;;;;;;;;;;;;;;;4.23;64.79;98277.16;4934462;29;3451;-82
2023/03/07 06:34:41;;;;;;;;;;;;;;;4.17;65.04;98279.97;4928257;29;3759;-82
2023/03/07 06:37:32;;;;;;;;;;;;;;;4.08;65.10;98282.97;4934667;29;3730;-81
2023/03/07 06:40:24;;;;;;;;;;;;;;;4.14;64.98;98270.59;4934786;29;3506;-82
2023/03/07 06:43:16;;;;;;;;;;;;;;;4.18;64.90;98270.94;4931296;29;3658;-83
2023/03/07 06:46:08;;;;;;;;;;;;;;;4.17;64.97;98266.66;4929578;29;5058;-84
2023/03/07 06:49:00;;;;;;;;;;;;;;;4.19;65.11;98267.22;4931118;29;5413;-85
2023/03/07 06:51:58;;;;;;;;;;;;;;;4.13;65.16;98265.50;4926511;29;2335;-82
2023/03/07 06:54:49;;;;;;;;;;;;;;;4.21;64.96;98271.28;4937165;29;901;-83
2023/03/07 06:57:41;;;;;;;;;;;;;;;4.13;65.27;98276.97;4933408;29;3612;-83
2023/03/07 07:00:34;;;;;;;;;;;;;;;4.17;64.94;98266.66;4921305;29;5674;-82
2023/03/07 07:03:25;;;;;;;;;;;;;;;4.11;65.05;98265.72;4915373;29;3254;-84
2023/03/07 07:06:17;;;;;;;;;;;;;;;4.21;64.77;98260.63;4920723;29;3635;-84
2023/03/07 07:09:09;;;;;;;;;;;;;;;4.12;65.38;98259.38;4916950;29;2551;-84
2023/03/07 07:12:03;;;;;;;;;;;;;;;4.15;64.86;98256.25;4918462;29;2504;-84
2023/03/07 07:14:55;;;;;;;;;;;;;;;4.15;65.04;98255.41;4914726;29;2638;-83
2023/03/07 07:17:47;;;;;;;;;;;;;;;4.13;65.28;98247.66;4918305;29;2831;-82
2023/03/07 07:20:39;;;;;;;;;;;;;;;4.17;65.18;98250.66;4918590;29;5577;-82
2023/03/07 07:23:31;;;;;;;;;;;;;;;4.20;64.97;98250.19;4915097;29;2408;-81
2023/03/07 07:26:23;;;;;;;;;;;;;;;4.14;65.07;98243.13;4917125;29;2821;-82
2023/03/07 07:29:15;;;;;;;;;;;;;;;4.19;64.84;98238.72;4916215;29;5411;-82
2023/03/07 07:32:07;;;;;;;;;;;;;;;4.23;64.73;98233.72;4921499;29;2655;-83
2023/03/07 07:34:58;;;;;;;;;;;;;;;4.18;64.93;98237.13;4908742;29;2368;-81
2023/03/07 07:37:50;;;;;;;;;;;;;;;4.14;64.92;98235.94;4917753;29;1899;-81
2023/03/07 07:40:43;;;;;;;;;;;;;;;4.25;64.73;98236.97;4918031;29;905;-81
2023/03/07 07:43:35;;;;;;;;;;;;;;;4.26;64.62;98234.06;4913810;29;5187;-83
2023/03/07 07:46:27;;;;;;;;;;;;;;;4.23;64.59;98233.72;4913935;29;5358;-81
2023/03/07 07:49:19;;;;;;;;;;;;;;;4.18;64.84;98230.97;4916713;29;5367;-81
2023/03/07 07:52:10;;;;;;;;;;;;;;;4.20;64.77;98229.69;4912433;29;2484;-83
2023/03/07 07:55:02;;;;;;;;;;;;;;;4.32;64.35;98234.97;4906816;29;2500;-82
2023/03/07 07:57:54;;;;;;;;;;;;;;;4.15;64.99;98228.75;4913913;29;5235;-81
2023/03/07 08:00:46;;;;;;;;;;;;;;;4.25;64.60;98229.00;4912072;29;3643;-81
2023/03/07 08:03:38;;;;;;;;;;;;;;;4.23;64.55;98215.09;4911069;29;2512;-81
2023/03/07 08:06:30;;;;;;;;;;;;;;;4.26;64.54;98223.41;4909842;29;5690;-81
2023/03/07 08:09:22;;;;;;;;;;;;;;;4.21;64.69;98220.66;4909524;29;2958;-82
2023/03/07 08:12:14;;;;;;;;;;;;;;;4.28;64.38;98223.19;4911849;29;2982;-83
2023/03/07 08:15:06;;;;;;;;;;;;;;;4.19;64.56;98222.75;4907020;29;3802;-80
2023/03/07 08:17:33;;;;;;;;;;;;;;;4.20;64.73;98221.69;4911281;29;3789;-82
2023/03/07 08:20:21;;;;;;;;;;;;;;;4.18;64.77;98217.66;4910876;29;3597;-83
2023/03/07 08:23:08;;;;;;;;;;;;;;;4.28;64.52;98207.19;4909843;29;3883;-83
2023/03/07 08:25:35;;;;;;;;;;;;;;;4.25;64.69;98211.13;4929311;23;3427;-82
2023/03/07 08:28:26;;;;;;;;;;;;;;;4.25;64.49;98205.81;4932991;29;2234;-81
2023/03/07 08:31:18;;;;;;;;;;;;;;;4.25;64.76;98208.47;4938571;29;2410;-82
2023/03/07 08:34:10;;;;;;;;;;;;;;;4.33;64.27;98205.44;4940746;29;2459;-82
2023/03/07 08:37:02;;;;;;;;;;;;;;;4.30;64.52;98208.59;4942094;29;2681;-81
2023/03/07 08:39:54;;;;;;;;;;;;;;;4.29;64.33;98209.66;4940305;29;2489;-82
2023/03/07 08:42:46;;;;;;;;;;;;;;;4.25;64.58;98219.13;4938589;29;2415;-81
2023/03/07 08:45:38;;;;;;;;;;;;;;;4.26;64.55;98211.94;4933818;29;2385;-81
2023/03/07 08:48:30;;;;;;;;;;;;;;;1.67;59.02;98205.97;4919653;29;2479;-88
2023/03/07 08:51:22;;;;;;;;;;;;;;;3.53;58.44;98208.81;4924128;29;2782;-87
2023/03/07 08:54:14;;;;;;;;;;;;;;;3.93;58.22;98204.59;4940373;29;2354;-87
2023/03/07 08:57:06;;;;;;;;;;;;;;;4.08;58.75;98202.25;4938478;29;2206;-87
2023/03/07 08:59:58;;;;;;;;;;;;;;;4.09;59.57;98195.91;4940205;29;2864;-87
2023/03/07 09:02:50;;;;;;;;;;;;;;;4.09;60.14;98193.25;4939812;29;2263;-88
2023/03/07 09:05:42;;;;;;;;;;;;;;;4.10;60.52;98189.53;4930258;29;2652;-88
2023/03/07 09:08:34;;;;;;;;;;;;;;;4.18;60.82;98193.69;4936060;29;3358;-88
2023/03/07 09:11:26;;;;;;;;;;;;;;;4.18;61.05;98196.34;4937536;29;3022;-87
2023/03/07 09:14:18;;;;;;;;;;;;;;;4.15;61.49;98186.13;4940703;29;2311;-86
2023/03/07 09:17:10;;;;;;;;;;;;;;;4.21;61.52;98187.88;4935266;29;1122;-86
2023/03/07 09:20:03;;;;;;;;;;;;;;;4.26;61.62;98179.97;4939203;29;2280;-87
2023/03/07 09:22:54;;;;;;;;;;;;;;;4.19;62.22;98179.31;4936691;29;1274;-87
2023/03/07 09:25:47;;;;;;;;;;;;;;;4.18;62.40;98180.38;4939300;29;2522;-86
2023/03/07 09:28:38;;;;;;;;;;;;;;;4.22;61.98;98178.84;4943296;29;2378;-86
2023/03/07 09:31:30;;;;;;;;;;;;;;;4.18;62.29;98175.03;4936828;29;2184;-88
2023/03/07 09:34:22;;;;;;;;;;;;;;;4.19;62.64;98179.31;4935723;29;2347;-86
2023/03/07 09:37:15;;;;;;;;;;;;;;;4.26;62.27;98185.31;4937037;29;4333;-87
2023/03/07 09:40:07;;;;;;;;;;;;;;;4.26;62.53;98183.44;4931147;29;3099;-86
2023/03/07 09:42:58;;;;;;;;;;;;;;;4.30;62.48;98176.59;4937909;29;2158;-86
2023/03/07 09:45:50;;;;;;;;;;;;;;;4.32;62.54;98182.53;4938661;29;1523;-86
2023/03/07 09:48:42;;;;;;;;;;;;;;;4.25;62.93;98179.16;4944345;29;2229;-86
2023/03/07 09:51:35;;;;;;;;;;;;;;;4.28;62.70;98183.22;4937661;29;2900;-86
2023/03/07 09:54:26;;;;;;;;;;;;;;;4.32;62.52;98171.88;4936889;29;2442;-85
2023/03/07 09:57:18;;;;;;;;;;;;;;;4.33;62.83;98170.00;4937403;29;2225;-86
2023/03/07 10:00:11;;;;;;;;;;;;;;;4.33;62.82;98172.66;4940132;29;2837;-85
2023/03/07 10:03:02;;;;;;;;;;;;;;;4.35;62.95;98170.56;4938913;29;1630;-86
2023/03/07 10:05:54;;;;;;;;;;;;;;;4.38;62.94;98167.41;4937273;29;2352;-85
2023/03/07 10:08:46;;;;;;;;;;;;;;;4.38;63.01;98167.41;4935175;29;1016;-85
2023/03/07 10:11:38;;;;;;;;;;;;;;;4.36;63.24;98161.53;4934589;29;2236;-86
2023/03/07 10:14:30;;;;;;;;;;;;;;;4.41;62.89;98160.81;4936210;29;3534;-85
2023/03/07 10:17:22;;;;;;;;;;;;;;;4.35;63.28;98159.09;4937390;29;3736;-86
2023/03/07 10:20:14;;;;;;;;;;;;;;;4.42;62.93;98157.91;4930494;29;3936;-86
2023/03/07 10:23:07;;;;;;;;;;;;;;;4.43;62.95;98151.53;4944335;29;2131;-86
2023/03/07 10:25:58;;;;;;;;;;;;;;;4.42;63.06;98151.78;4945832;29;1707;-86
2023/03/07 10:28:49;;;;;;;;;;;;;;;4.42;63.19;98144.59;4937689;29;2227;-86
2023/03/07 10:31:41;;;;;;;;;;;;;;;4.43;63.29;98148.84;4939552;29;997;-86
2023/03/07 10:34:33;;;;;;;;;;;;;;;4.45;63.02;98136.09;4943272;29;2589;-86
2023/03/07 10:37:24;;;;;;;;;;;;;;;4.45;63.17;98130.78;4935728;29;1084;-86
2023/03/07 10:40:16;;;;;;;;;;;;;;;4.47;63.38;98133.19;4938929;29;1147;-86
2023/03/07 10:43:08;;;;;;;;;;;;;;;4.54;63.32;98132.00;4941567;29;1112;-85
2023/03/07 10:46:00;;;;;;;;;;;;;;;4.50;63.08;98130.03;4939687;29;2363;-85
2023/03/07 10:48:52;;;;;;;;;;;;;;;4.49;63.21;98123.91;4935424;29;2788;-85
2023/03/07 10:51:45;;;;;;;;;;;;;;;4.51;63.25;98118.34;4940175;29;2197;-86
2023/03/07 10:54:36;;;;;;;;;;;;;;;4.50;63.39;98122.06;4922161;29;2784;-85
2023/03/07 10:57:29;;;;;;;;;;;;;;;4.58;63.31;98121.66;4914073;29;2901;-83
2023/03/07 11:00:21;;;;;;;;;;;;;;;4.54;63.39;98124.00;4920760;29;2750;-87
2023/03/07 11:03:13;;;;;;;;;;;;;;;4.55;63.35;98122.16;4918643;29;2872;-84
2023/03/07 11:06:04;;;;;;;;;;;;;;;4.55;63.52;98112.28;4902786;29;2536;-86
2023/03/07 11:08:57;;;;;;;;;;;;;;;4.69;63.06;98107.47;4934859;29;2080;-85
2023/03/07 11:11:49;;;;;;;;;;;;;;;4.68;63.15;98107.72;4942242;29;2312;-86
2023/03/07 11:14:41;;;;;;;;;;;;;;;4.61;63.42;98102.53;4936137;29;1775;-86
2023/03/07 11:17:33;;;;;;;;;;;;;;;4.64;63.48;98101.25;4929060;29;2423;-85
2023/03/07 11:20:24;;;;;;;;;;;;;;;4.68;63.36;98099.72;4924883;29;2825;-87
2023/03/07 11:23:17;;;;;;;;;;;;;;;4.65;63.52;98101.00;4913058;29;2719;-84
2023/03/07 11:26:08;;;;;;;;;;;;;;;4.75;63.44;98100.38;4901093;29;2913;-87
2023/03/07 11:29:00;;;;;;;;;;;;;;;4.66;63.64;98104.47;4913771;29;2835;-85
2023/03/07 11:31:51;;;;;;;;;;;;;;;4.70;63.51;98103.75;4912638;29;2388;-85
2023/03/07 11:34:43;;;;;;;;;;;;;;;4.68;63.58;98097.06;4919817;29;2550;-85
2023/03/07 11:37:36;;;;;;;;;;;;;;;4.74;63.71;98099.56;4911452;29;3016;-86
2023/03/07 11:40:28;;;;;;;;;;;;;;;4.72;63.62;98091.00;4913064;29;2927;-87
2023/03/07 11:43:20;;;;;;;;;;;;;;;4.77;63.70;98098.28;4914896;29;2315;-84
2023/03/07 11:46:12;;;;;;;;;;;;;;;4.80;63.57;98099.66;4913822;29;2859;-86
2023/03/07 11:49:03;;;;;;;;;;;;;;;4.80;63.56;98092.47;4917983;29;2501;-86
2023/03/07 11:51:54;;;;;;;;;;;;;;;4.82;63.40;98087.66;4935177;29;1846;-84
2023/03/07 11:54:46;;;;;;;;;;;;;;;4.87;63.32;98093.09;4937007;29;1360;-85
2023/03/07 11:57:38;;;;;;;;;;;;;;;4.86;63.52;98093.34;4938245;29;2498;-87
2023/03/07 12:00:31;;;;;;;;;;;;;;;4.85;63.75;98100.53;4934277;29;2256;-86
2023/03/07 12:03:23;;;;;;;;;;;;;;;4.83;63.66;98097.31;4913882;29;2369;-84
2023/03/07 12:06:15;;;;;;;;;;;;;;;4.88;63.72;98091.22;4910280;29;3020;-86
2023/03/07 12:09:07;;;;;;;;;;;;;;;4.88;63.75;98092.06;4913134;29;2435;-86
2023/03/07 12:11:59;;;;;;;;;;;;;;;4.94;63.35;98083.09;4912455;29;2696;-85
2023/03/07 12:14:51;;;;;;;;;;;;;;;4.92;63.52;98087.03;4919648;29;2420;-85
2023/03/07 12:17:43;;;;;;;;;;;;;;;4.92;63.52;98087.03;4912077;29;2821;-86
2023/03/07 12:20:35;;;;;;;;;;;;;;;5.05;63.00;98089.38;4912314;29;2881;-85
2023/03/07 12:23:26;;;;;;;;;;;;;;;4.96;63.53;98091.63;4910980;29;2935;-86
2023/03/07 12:26:18;;;;;;;;;;;;;;;4.96;63.61;98085.50;4912295;29;2583;-85
2023/03/07 12:29:11;;;;;;;;;;;;;;;4.95;63.58;98079.34;4916557;29;2338;-84
2023/03/07 12:32:03;;;;;;;;;;;;;;;5.07;63.50;98084.59;4914480;29;2785;-85
2023/03/07 12:34:55;;;;;;;;;;;;;;;5.04;63.44;98078.97;4911836;29;2411;-87
2023/03/07 12:37:48;;;;;;;;;;;;;;;5.06;63.35;98075.00;4910992;29;3261;-85
2023/03/07 12:40:40;;;;;;;;;;;;;;;5.11;63.31;98071.56;4912567;29;2807;-84
2023/03/07 12:43:32;;;;;;;;;;;;;;;5.07;63.48;98073.94;4915911;29;2792;-86
2023/03/07 12:46:23;;;;;;;;;;;;;;;5.17;63.34;98075.94;4912123;29;2812;-85
2023/03/07 12:49:16;;;;;;;;;;;;;;;5.17;63.34;98070.59;4914337;29;2363;-85
2023/03/07 12:52:08;;;;;;;;;;;;;;;5.20;63.30;98064.78;4923346;29;2557;-86
2023/03/07 12:54:59;;;;;;;;;;;;;;;5.12;63.60;98060.69;4933587;29;1379;-86
2023/03/07 12:57:51;;;;;;;;;;;;;;;5.09;63.88;98061.16;4930447;29;3628;-86
2023/03/07 13:00:43;;;;;;;;;;;;;;;5.13;63.63;98058.81;4916702;29;2786;-85
2023/03/07 13:06:41;;;;;;;;;;;;;;;5.17;63.60;98060.72;4919525;29;2268;-85
2023/03/07 13:09:34;;;;;;;;;;;;;;;5.22;63.40;98055.47;4916614;29;2920;-83
2023/03/07 13:12:26;;;;;;;;;;;;;;;5.23;63.65;98054.44;4925580;29;2814;-86
2023/03/07 13:15:17;;;;;;;;;;;;;;;5.28;63.41;98055.56;4923816;29;2694;-87
2023/03/07 13:18:10;;;;;;;;;;;;;;;5.30;63.46;98056.13;4938524;29;2392;-85
2023/03/07 13:27:24;;;;;;;;;;;;;;;5.31;63.52;98055.06;4948568;29;1283;-94
2023/03/07 13:30:16;;;;;;;;;;;;;;;5.25;63.68;98051.50;4930739;29;641;-95
2023/03/07 13:33:12;;;;;;;;;;;;;;;5.24;63.91;98047.22;4932800;29;666;-96
2023/03/07 13:36:04;;;;;;;;;;;;;;;5.27;63.87;98045.94;4936425;29;622;-95
2023/03/07 13:38:56;;;;;;;;;;;;;;;5.28;63.79;98047.53;4941068;29;1942;-96
2023/03/07 13:41:59;;;;;;;;;;;;;;;5.30;63.79;98040.91;4938083;29;638;-96
2023/03/07 13:45:05;;;;;;;;;;;;;;;5.36;63.77;98042.59;4935298;29;642;-96
2023/03/07 13:48:01;;;;;;;;;;;;;;;5.29;63.78;98041.94;4928619;29;614;-95
2023/03/07 13:50:53;;;;;;;;;;;;;;;5.28;63.94;98045.69;4929227;29;827;-95
2023/03/07 13:53:45;;;;;;;;;;;;;;;5.27;64.30;98048.59;4929020;29;869;-94
2023/03/07 13:59:58;;;;;;;;;;;;;;;;;;;;;
2023/03/07 14:05:56;;;;;;;;;;;;;;;5.35;63.67;98040.94;4916028;29;625;-94
2023/03/07 14:24:15;;;;;;;;;;;;;;;5.39;63.93;98030.63;5094241;28;2658;-82
2023/03/07 14:27:07;;;;;;;;;;;;;;;5.41;63.85;98028.47;5103573;28;2164;-82
2023/03/07 14:29:58;;;;;;;;;;;;;;;5.36;64.24;98036.44;5109019;28;1877;-81
2023/03/07 14:32:50;;;;;;;;;;;;;;;5.40;63.97;98032.22;5095799;28;2018;-82
2023/03/07 14:35:41;;;;;;;;;;;;;;;5.44;63.69;98031.50;5098404;28;2446;-82
2023/03/07 14:38:32;;;;;;;;;;;;;;;5.46;63.92;98033.91;5106364;28;2253;-82
2023/03/07 14:41:25;;;;;;;;;;;;;;;5.43;63.93;98037.88;5099810;28;2127;-82
2023/03/07 14:44:16;;;;;;;;;;;;;;;5.41;64.01;98034.66;5096056;28;2375;-82
2023/03/07 14:47:09;;;;;;;;;;;;;;;5.43;64.00;98035.19;5096372;28;3638;-81
2023/03/07 14:50:00;;;;;;;;;;;;;;;5.44;64.04;98030.66;5094513;28;2281;-81
2023/03/07 14:52:53;;;;;;;;;;;;;;;5.45;63.95;98035.75;5096512;28;2442;-81
2023/03/07 14:55:44;;;;;;;;;;;;;;;5.44;63.95;98030.66;5097651;28;2433;-83
2023/03/07 14:58:36;;;;;;;;;;;;;;;5.48;63.93;98031.78;5100985;28;2843;-82
2023/03/07 15:01:30;;;;;;;;;;;;;;;5.50;64.12;98027.03;5086085;28;2419;-83
2023/03/07 15:04:21;;;;;;;;;;;;;;;5.45;64.12;98024.28;5101315;28;2508;-82
2023/03/07 15:07:13;;;;;;;;;;;;;;;5.49;63.73;98025.38;5102322;28;2494;-82